Time;durP1;ratioP1;P1;durP2;ratioP2;P2;SDS_P1;SDS_P2;PMS_P1;PMS_P2;Temp;Humidity;BMP_temperature;BMP_pressure;BME280_temperature;BME280_humidity;BME280_pressure;Samples;Min_cycle;Max_cycle;Signal;HPM_P1;HPM_P2
2023/04/15 00:00:37;;;;;;;3.65;1.98;;;;;;;-144.57;100.00;62443.72;5071687;28;20080;-63
2023/04/15 00:03:04;;;;;;;2.45;1.77;;;;;;;-144.57;100.00;62443.72;5071366;28;20088;-63
2023/04/15 00:05:30;;;;;;;2.60;1.40;;;;;;;-144.57;100.00;62443.72;5071736;28;20056;-65
2023/04/15 00:07:57;;;;;;;4.60;1.70;;;;;;;-144.57;100.00;62443.72;5071430;28;20063;-65
2023/04/15 00:10:24;;;;;;;2.65;1.40;;;;;;;-144.57;100.00;62443.72;5070276;28;20044;-64
2023/04/15 00:12:51;;;;;;;2.22;1.52;;;;;;;-144.57;100.00;62443.72;5070005;28;20047;-63
2023/04/15 00:15:17;;;;;;;5.25;1.60;;;;;;;-144.57;100.00;62443.72;5053605;28;20048;-64
2023/04/15 00:17:43;;;;;;;4.55;1.75;;;;;;;-144.57;100.00;62443.72;5071092;28;20426;-66
2023/04/15 00:20:09;;;;;;;1.92;1.50;;;;;;;-144.57;100.00;62443.72;5053599;28;20057;-63
2023/04/15 00:22:35;;;;;;;3.45;2.10;;;;;;;-144.57;100.00;62443.72;5071268;28;20047;-65
2023/04/15 00:25:02;;;;;;;2.75;1.88;;;;;;;-144.57;100.00;62443.72;5070219;28;20044;-65
2023/04/15 00:27:29;;;;;;;4.53;1.70;;;;;;;-144.57;100.00;62443.72;5069997;28;20053;-63
2023/04/15 00:29:56;;;;;;;2.75;2.03;;;;;;;-144.57;100.00;62443.72;5071346;28;20422;-63
2023/04/15 00:32:22;;;;;;;3.30;1.63;;;;;;;-144.57;100.00;62443.72;5069909;28;20032;-64
2023/04/15 00:34:48;;;;;;;3.35;2.03;;;;;;;-144.57;100.00;62443.72;5069676;28;20044;-63
2023/04/15 00:37:14;;;;;;;3.13;1.75;;;;;;;-144.57;100.00;62443.72;5071026;28;20129;-64
2023/04/15 00:39:39;;;;;;;1.98;1.50;;;;;;;-144.57;100.00;62443.72;5053204;28;20078;-63
2023/04/15 00:42:05;;;;;;;2.65;1.70;;;;;;;-144.57;100.00;62443.72;5069839;28;20074;-65
2023/04/15 00:44:32;;;;;;;3.38;1.60;;;;;;;-144.57;100.00;62443.72;5071248;28;20044;-64
2023/04/15 00:47:01;;;;;;;2.70;1.48;;;;;;;-144.57;100.00;62443.72;5069777;28;20040;-64
2023/04/15 00:49:28;;;;;;;1.83;1.52;;;;;;;-144.57;100.00;62443.72;5069795;28;20040;-63
2023/04/15 00:51:53;;;;;;;2.88;1.55;;;;;;;-144.57;100.00;62443.72;5069674;28;20121;-64
2023/04/15 00:54:20;;;;;;;3.80;2.08;;;;;;;-144.57;100.00;62443.72;5071294;28;20135;-64
2023/04/15 00:56:46;;;;;;;2.30;1.50;;;;;;;-144.57;100.00;62443.72;5052887;28;20041;-64
2023/04/15 00:59:12;;;;;;;1.80;1.50;;;;;;;-144.57;100.00;62443.72;5052954;28;20047;-63
2023/04/15 01:01:39;;;;;;;4.57;1.90;;;;;;;-144.57;100.00;62443.72;5053048;28;20055;-63
2023/04/15 01:04:05;;;;;;;4.07;1.80;;;;;;;-144.57;100.00;62443.72;5053060;28;20121;-63
2023/04/15 01:06:31;;;;;;;3.28;2.20;;;;;;;-144.57;100.00;62443.72;5069346;28;20494;-63
2023/04/15 01:08:58;;;;;;;6.43;2.40;;;;;;;-144.57;100.00;62443.72;5069809;28;20033;-63
2023/04/15 01:11:24;;;;;;;1.92;1.60;;;;;;;-144.57;100.00;62443.72;5053344;28;20045;-64
2023/04/15 01:13:51;;;;;;;1.52;1.40;;;;;;;-144.57;100.00;62443.72;5070080;28;20348;-64
2023/04/15 01:16:18;;;;;;;3.25;1.92;;;;;;;-144.57;100.00;62443.72;5069630;28;20506;-63
2023/04/15 01:18:43;;;;;;;2.28;1.70;;;;;;;-144.57;100.00;62443.72;5069690;28;20094;-63
2023/04/15 01:21:09;;;;;;;3.03;2.00;;;;;;;-144.57;100.00;62443.72;5036032;28;20499;-63
2023/04/15 01:23:39;;;;;;;6.28;2.20;;;;;;;-144.57;100.00;62443.72;5053953;28;20093;-64
2023/04/15 01:26:09;;;;;;;3.38;1.67;;;;;;;-144.57;100.00;62443.72;5072818;28;20039;-64
2023/04/15 01:28:37;;;;;;;3.53;1.97;;;;;;;-144.57;100.00;62443.72;5073071;28;20049;-63
2023/04/15 01:31:06;;;;;;;2.65;1.70;;;;;;;-144.57;100.00;62443.72;5073167;28;20559;-64
2023/04/15 01:33:35;;;;;;;2.38;1.50;;;;;;;-144.57;100.00;62443.72;5057013;28;20127;-65
2023/04/15 01:36:19;;;;;;;3.50;1.58;;;;;;;-144.57;100.00;62443.72;5073087;28;20060;-65
2023/04/15 01:38:46;;;;;;;4.65;2.13;;;;;;;-144.57;100.00;62443.72;5073340;28;20044;-63
2023/04/15 01:41:13;;;;;;;4.05;1.90;;;;;;;-144.57;100.00;62443.72;5072678;28;20091;-65
2023/04/15 01:43:40;;;;;;;2.42;1.85;;;;;;;-144.57;100.00;62443.72;5072343;28;20474;-64
2023/04/15 01:46:09;;;;;;;3.05;1.40;;;;;;;-144.57;100.00;62443.72;5074074;28;20486;-63
2023/04/15 01:48:36;;;;;;;3.95;1.70;;;;;;;-144.57;100.00;62443.72;5072922;28;20044;-64
2023/04/15 01:51:04;;;;;;;5.72;1.90;;;;;;;-144.57;100.00;62443.72;5073697;28;20040;-63
2023/04/15 01:53:31;;;;;;;4.57;2.03;;;;;;;-144.57;100.00;62443.72;5073744;28;20049;-64
2023/04/15 01:55:58;;;;;;;3.83;1.90;;;;;;;-144.57;100.00;62443.72;5072775;28;20489;-64
2023/04/15 01:58:26;;;;;;;4.55;2.25;;;;;;;-144.57;100.00;62443.72;5073711;28;20040;-63
2023/04/15 02:00:52;;;;;;;7.43;2.20;;;;;;;-144.57;100.00;62443.72;5056000;28;20416;-65
2023/04/15 02:03:20;;;;;;;4.65;1.83;;;;;;;-144.57;100.00;62443.72;5073728;28;20061;-64
2023/04/15 02:05:48;;;;;;;5.00;2.03;;;;;;;-144.57;100.00;62443.72;5073076;28;20041;-65
2023/04/15 02:08:14;;;;;;;4.82;1.88;;;;;;;-144.57;100.00;62443.72;5072593;28;20046;-64
2023/04/15 02:10:42;;;;;;;5.88;1.88;;;;;;;-144.57;100.00;62443.72;5073382;28;20048;-64
2023/04/15 02:13:10;;;;;;;3.47;1.70;;;;;;;-144.57;100.00;62443.72;5073525;28;20387;-64
2023/04/15 02:15:37;;;;;;;11.10;2.67;;;;;;;-144.57;100.00;62443.72;5073737;28;20044;-63
2023/04/15 02:18:04;;;;;;;3.83;2.00;;;;;;;-144.57;100.00;62443.72;5072077;28;20036;-65
2023/04/15 02:20:31;;;;;;;2.45;1.90;;;;;;;-144.57;100.00;62443.72;5071673;28;20048;-63
2023/04/15 02:22:58;;;;;;;6.22;2.08;;;;;;;-144.57;100.00;62443.72;5071533;28;20040;-65
2023/04/15 02:25:25;;;;;;;2.78;1.40;;;;;;;-144.57;100.00;62443.72;5055542;28;20047;-63
2023/04/15 02:27:52;;;;;;;3.88;1.98;;;;;;;-144.57;100.00;62443.72;5072222;28;20052;-62
2023/04/15 02:30:20;;;;;;;4.05;2.00;;;;;;;-144.57;100.00;62443.72;5072980;28;20067;-63
2023/04/15 02:32:47;;;;;;;7.80;2.00;;;;;;;-144.57;100.00;62443.72;5071849;28;20044;-63
2023/04/15 02:35:14;;;;;;;7.63;1.70;;;;;;;-144.57;100.00;62443.72;5071779;28;20048;-62
2023/04/15 02:37:44;;;;;;;3.35;2.28;;;;;;;-144.57;100.00;62443.72;5073197;28;20512;-64
2023/04/15 02:40:12;;;;;;;3.13;1.73;;;;;;;-144.57;100.00;62443.72;5071978;28;20048;-64
2023/04/15 02:42:40;;;;;;;3.58;1.77;;;;;;;-144.57;100.00;62443.72;5053117;28;20045;-65
2023/04/15 02:45:13;;;;;;;2.58;1.80;;;;;;;-144.57;100.00;62443.72;5051774;28;20410;-64
2023/04/15 02:47:42;;;;;;;3.45;2.15;;;;;;;-144.57;100.00;62443.72;5051776;28;20041;-64
2023/04/15 02:50:12;;;;;;;4.30;2.10;;;;;;;-144.57;100.00;62443.72;5053008;28;20051;-64
2023/04/15 02:52:40;;;;;;;8.45;2.75;;;;;;;-144.57;100.00;62443.72;5051895;28;20037;-64
2023/04/15 02:55:08;;;;;;;5.53;1.90;;;;;;;-144.57;100.00;62443.72;5051139;28;20391;-64
2023/04/15 02:57:37;;;;;;;5.93;2.13;;;;;;;-144.57;100.00;62443.72;5035126;28;20049;-64
2023/04/15 03:00:08;;;;;;;;;;;;;;;-144.57;100.00;62443.72;5051786;28;20063;-64
2023/04/15 03:02:38;;;;;;;6.30;2.40;;;;;;;-144.57;100.00;62443.72;5051076;28;20309;-64
2023/04/15 03:05:06;;;;;;;5.30;2.20;;;;;;;-144.57;100.00;62443.72;5051486;28;20055;-65
2023/04/15 03:07:33;;;;;;;5.22;2.20;;;;;;;-144.57;100.00;62443.72;5051483;28;20044;-65
2023/04/15 03:10:02;;;;;;;3.60;2.00;;;;;;;-144.57;100.00;62443.72;5052543;28;20045;-64
2023/04/15 03:12:29;;;;;;;8.40;2.17;;;;;;;-144.57;100.00;62443.72;5051315;28;20036;-64
2023/04/15 03:14:59;;;;;;;3.33;2.10;;;;;;;-144.57;100.00;62443.72;5051057;28;20418;-62
2023/04/15 03:17:33;;;;;;;7.05;2.40;;;;;;;-144.57;100.00;62443.72;5035770;28;20041;-64
2023/04/15 03:20:02;;;;;;;3.38;2.22;;;;;;;-144.57;100.00;62443.72;5052383;28;20051;-63
2023/04/15 03:22:30;;;;;;;3.83;2.38;;;;;;;-144.57;100.00;62443.72;5051023;28;20495;-64
2023/04/15 03:24:57;;;;;;;10.90;2.50;;;;;;;-144.57;100.00;62443.72;5052281;28;20045;-64
2023/04/15 03:27:25;;;;;;;7.53;2.20;;;;;;;-144.57;100.00;62443.72;5052307;28;20498;-65
2023/04/15 03:29:55;;;;;;;;;;;;;;;-144.57;100.00;62443.72;5051098;28;20041;-63
2023/04/15 03:32:24;;;;;;;6.80;2.20;;;;;;;-144.57;100.00;62443.72;5034461;28;19921;-64
2023/04/15 03:34:51;;;;;;;4.07;2.35;;;;;;;-144.57;100.00;62443.72;5017833;28;20045;-65
2023/04/15 03:37:18;;;;;;;16.52;2.85;;;;;;;-144.57;100.00;62443.72;5033891;28;20051;-63
2023/04/15 03:39:46;;;;;;;7.55;2.67;;;;;;;-144.57;100.00;62443.72;5034134;28;20036;-63
2023/04/15 03:42:13;;;;;;;5.22;2.10;;;;;;;-144.57;100.00;62443.72;5067075;28;20051;-64
2023/04/15 03:44:40;;;;;;;8.38;2.75;;;;;;;-144.57;100.00;62443.72;5070400;28;20040;-63
2023/04/15 03:47:07;;;;;;;15.18;3.38;;;;;;;-144.57;100.00;62443.72;5070143;28;20043;-64
2023/04/15 03:49:35;;;;;;;8.13;2.88;;;;;;;-144.57;100.00;62443.72;5070144;28;20055;-63
2023/04/15 03:52:03;;;;;;;3.88;1.98;;;;;;;-144.57;100.00;62443.72;5054100;28;20041;-65
2023/04/15 03:54:30;;;;;;;5.68;2.50;;;;;;;-144.57;100.00;62443.72;5071650;28;20049;-64
2023/04/15 03:56:57;;;;;;;5.18;2.35;;;;;;;-144.57;100.00;62443.72;5070243;28;20498;-63
2023/04/15 03:59:24;;;;;;;6.38;2.50;;;;;;;-144.57;100.00;62443.72;5070094;28;20405;-64
2023/04/15 04:01:51;;;;;;;8.50;2.47;;;;;;;-144.57;100.00;62443.72;5071813;28;20051;-63
2023/04/15 04:04:18;;;;;;;4.25;2.35;;;;;;;-144.57;100.00;62443.72;5071323;28;20049;-63
2023/04/15 04:06:44;;;;;;;11.52;2.72;;;;;;;-144.57;100.00;62443.72;5071236;28;20413;-62
2023/04/15 04:09:11;;;;;;;10.50;3.20;;;;;;;-144.57;100.00;62443.72;5070231;28;20036;-64
2023/04/15 04:11:38;;;;;;;3.03;2.03;;;;;;;-144.57;100.00;62443.72;5071552;28;20043;-64
2023/04/15 04:14:05;;;;;;;5.70;2.25;;;;;;;-144.57;100.00;62443.72;5070349;28;20040;-64
2023/04/15 04:16:32;;;;;;;6.90;2.10;;;;;;;-144.57;100.00;62443.72;5071133;28;20036;-64
2023/04/15 04:18:59;;;;;;;3.58;1.90;;;;;;;-144.57;100.00;62443.72;5071222;28;20044;-64
2023/04/15 04:21:26;;;;;;;5.80;2.40;;;;;;;-144.57;100.00;62443.72;5070096;28;20048;-63
2023/04/15 04:23:53;;;;;;;9.20;2.10;;;;;;;-144.57;100.00;62443.72;5069944;28;20157;-65
2023/04/15 04:26:21;;;;;;;7.15;2.28;;;;;;;-144.57;100.00;62443.72;5071454;28;20033;-64
2023/04/15 04:28:48;;;;;;;6.47;1.95;;;;;;;-144.57;100.00;62443.72;5070947;28;20102;-65
2023/04/15 04:31:15;;;;;;;3.70;2.08;;;;;;;-144.57;100.00;62443.72;5053070;28;20033;-66
2023/04/15 04:33:42;;;;;;;3.88;2.20;;;;;;;-144.57;100.00;62443.72;5071260;28;20504;-64
2023/04/15 04:36:09;;;;;;;6.70;2.45;;;;;;;-144.57;100.00;62443.72;5070318;28;20138;-64
2023/04/15 04:38:36;;;;;;;5.45;2.38;;;;;;;-144.57;100.00;62443.72;5071157;28;20039;-64
2023/04/15 04:41:05;;;;;;;4.35;2.22;;;;;;;-144.57;100.00;62443.72;5071137;28;20486;-64
2023/04/15 04:43:32;;;;;;;2.97;2.15;;;;;;;-144.57;100.00;62443.72;5052981;28;20047;-66
2023/04/15 04:45:59;;;;;;;5.45;2.22;;;;;;;-144.57;100.00;62443.72;5069904;28;20490;-64
2023/04/15 04:48:26;;;;;;;3.58;2.33;;;;;;;-144.57;100.00;62443.72;5068947;28;20054;-66
2023/04/15 04:50:53;;;;;;;6.93;3.03;;;;;;;-144.57;100.00;62443.72;5070396;28;20045;-66
2023/04/15 04:53:20;;;;;;;3.22;1.92;;;;;;;-144.57;100.00;62443.72;5068824;28;20502;-66
2023/04/15 04:55:47;;;;;;;7.45;2.30;;;;;;;-144.57;100.00;62443.72;5071069;28;20421;-65
2023/04/15 04:58:14;;;;;;;2.45;1.85;;;;;;;-144.57;100.00;62443.72;5071702;28;20047;-64
2023/04/15 05:00:41;;;;;;;5.43;2.45;;;;;;;-144.57;100.00;62443.72;5072112;28;20050;-65
2023/04/15 05:03:08;;;;;;;4.45;1.80;;;;;;;-144.57;100.00;62443.72;5064654;28;20062;-69
2023/04/15 05:05:38;;;;;;;2.60;2.10;;;;;;;-144.57;100.00;62443.72;5064336;28;20043;-66
2023/04/15 05:08:06;;;;;;;3.23;1.77;;;;;;;-144.57;100.00;62443.72;5065212;28;20508;-65
2023/04/15 05:10:33;;;;;;;6.00;2.42;;;;;;;-144.57;100.00;62443.72;5062944;28;20413;-71
2023/04/15 05:13:00;;;;;;;3.83;2.10;;;;;;;-144.57;100.00;62443.72;5047849;28;20498;-67
2023/04/15 05:15:28;;;;;;;2.63;2.00;;;;;;;-144.57;100.00;62443.72;5043345;28;20044;-64
2023/04/15 05:17:57;;;;;;;4.28;2.13;;;;;;;-144.57;100.00;62443.72;5031239;28;20040;-64
2023/04/15 05:20:24;;;;;;;10.35;2.17;;;;;;;-144.57;100.00;62443.72;5059458;28;20360;-65
2023/04/15 05:22:51;;;;;;;3.55;1.75;;;;;;;-144.57;100.00;62443.72;5062136;28;20070;-64
2023/04/15 05:25:17;;;;;;;3.15;2.15;;;;;;;-144.57;100.00;62443.72;5062891;28;20041;-64
2023/04/15 05:27:45;;;;;;;4.35;1.95;;;;;;;-144.57;100.00;62443.72;5062641;28;20408;-65
2023/04/15 05:30:12;;;;;;;6.20;2.15;;;;;;;-144.57;100.00;62443.72;5062764;28;20047;-64
2023/04/15 05:32:39;;;;;;;9.77;2.53;;;;;;;-144.57;100.00;62443.72;5070320;28;20051;-65
2023/04/15 05:35:07;;;;;;;5.50;1.80;;;;;;;-144.57;100.00;62443.72;5074169;28;20044;-65
2023/04/15 05:37:34;;;;;;;5.32;1.92;;;;;;;-144.57;100.00;62443.72;5072746;28;20042;-66
2023/04/15 05:40:01;;;;;;;5.78;2.25;;;;;;;-144.57;100.00;62443.72;5074434;28;20049;-65
2023/04/15 05:42:28;;;;;;;3.03;1.95;;;;;;;-144.57;100.00;62443.72;5073788;28;20426;-66
2023/04/15 05:44:55;;;;;;;2.72;1.60;;;;;;;-144.57;100.00;62443.72;5073654;28;20052;-64
2023/04/15 05:47:22;;;;;;;5.00;1.92;;;;;;;-144.57;100.00;62443.72;5074083;28;20032;-66
2023/04/15 05:49:49;;;;;;;4.35;1.90;;;;;;;-144.57;100.00;62443.72;5072341;28;20048;-65
2023/04/15 05:52:16;;;;;;;1.73;1.40;;;;;;;-144.57;100.00;62443.72;5073386;28;20047;-67
2023/04/15 05:54:43;;;;;;;3.25;1.88;;;;;;;-144.57;100.00;62443.72;5072481;28;20036;-66
2023/04/15 05:57:10;;;;;;;6.65;2.15;;;;;;;-144.57;100.00;62443.72;5071602;28;20395;-65
2023/04/15 05:59:37;;;;;;;5.82;2.53;;;;;;;-144.57;100.00;62443.72;5073309;28;20145;-64
2023/04/15 06:02:05;;;;;;;5.10;2.63;;;;;;;-144.57;100.00;62443.72;5072968;28;20037;-65
2023/04/15 06:04:31;;;;;;;6.85;3.28;;;;;;;-144.57;100.00;62443.72;5073303;28;20510;-64
2023/04/15 06:06:58;;;;;;;6.20;2.80;;;;;;;-144.57;100.00;62443.72;5073459;28;20040;-66
2023/04/15 06:09:25;;;;;;;3.75;2.30;;;;;;;-144.57;100.00;62443.72;5072958;28;20044;-65
2023/04/15 06:11:52;;;;;;;3.50;1.90;;;;;;;-144.57;100.00;62443.72;5073739;28;20036;-66
2023/04/15 06:14:19;;;;;;;4.40;2.17;;;;;;;-144.57;100.00;62443.72;5072082;28;20041;-65
2023/04/15 06:16:46;;;;;;;5.10;2.30;;;;;;;-144.57;100.00;62443.72;5073508;28;20036;-65
2023/04/15 06:19:13;;;;;;;4.55;1.85;;;;;;;-144.57;100.00;62443.72;5072038;28;20413;-64
2023/04/15 06:21:40;;;;;;;10.65;3.08;;;;;;;-144.57;100.00;62443.72;5057430;28;20041;-64
2023/04/15 06:24:07;;;;;;;12.43;3.30;;;;;;;-144.57;100.00;62443.72;5058751;28;20036;-66
2023/04/15 06:26:35;;;;;;;5.93;3.30;;;;;;;-144.57;100.00;62443.72;5063836;28;20534;-65
2023/04/15 06:29:01;;;;;;;4.45;2.78;;;;;;;-144.57;100.00;62443.72;5070992;28;20032;-66
2023/04/15 06:31:29;;;;;;;4.82;2.88;;;;;;;-144.57;100.00;62443.72;5072403;28;20048;-64
2023/04/15 06:33:56;;;;;;;12.88;3.88;;;;;;;-144.57;100.00;62443.72;5072896;28;20047;-64
2023/04/15 06:36:23;;;;;;;4.80;2.22;;;;;;;-144.57;100.00;62443.72;5058416;28;20044;-65
2023/04/15 06:38:50;;;;;;;6.78;2.10;;;;;;;-144.57;100.00;62443.72;5053790;28;20047;-66
2023/04/15 06:41:17;;;;;;;5.93;1.90;;;;;;;-144.57;100.00;62443.72;5061362;28;20036;-64
2023/04/15 06:43:44;;;;;;;4.90;2.05;;;;;;;-144.57;100.00;62443.72;5038586;28;20040;-66
2023/04/15 06:46:11;;;;;;;4.60;2.03;;;;;;;-144.57;100.00;62443.72;5071419;28;20234;-66
2023/04/15 06:48:38;;;;;;;6.80;2.53;;;;;;;-144.57;100.00;62443.72;5071475;28;20549;-65
2023/04/15 06:51:05;;;;;;;8.30;2.58;;;;;;;-144.57;100.00;62443.72;5071444;28;20051;-66
2023/04/15 06:53:32;;;;;;;7.68;2.63;;;;;;;-144.57;100.00;62443.72;5072982;28;20043;-66
2023/04/15 06:55:59;;;;;;;5.28;2.10;;;;;;;-144.57;100.00;62443.72;5072027;28;20150;-65
2023/04/15 06:58:25;;;;;;;6.18;2.40;;;;;;;-144.57;100.00;62443.72;5072537;28;20506;-65
2023/04/15 07:00:52;;;;;;;6.45;2.53;;;;;;;-144.57;100.00;62443.72;5072814;28;20357;-66
2023/04/15 07:03:20;;;;;;;3.47;2.08;;;;;;;-144.57;100.00;62443.72;5071230;28;20067;-65
2023/04/15 07:05:47;;;;;;;3.50;1.70;;;;;;;-144.57;100.00;62443.72;5072280;28;20043;-65
2023/04/15 07:08:14;;;;;;;18.63;4.38;;;;;;;-144.57;100.00;62443.72;5071752;28;20039;-64
2023/04/15 07:10:41;;;;;;;5.82;2.67;;;;;;;-144.57;100.00;62443.72;5072622;28;20047;-65
2023/04/15 07:13:09;;;;;;;4.95;1.98;;;;;;;-144.57;100.00;62443.72;5071365;28;20055;-64
2023/04/15 07:15:36;;;;;;;5.28;3.53;;;;;;;-144.57;100.00;62443.72;5072506;28;20070;-65
2023/04/15 07:18:03;;;;;;;5.10;2.10;;;;;;;-144.57;100.00;62443.72;5070902;28;20047;-65
2023/04/15 07:20:30;;;;;;;9.75;2.65;;;;;;;-144.57;100.00;62443.72;5071864;28;20398;-66
2023/04/15 07:22:57;;;;;;;4.68;2.10;;;;;;;-144.57;100.00;62443.72;5053706;28;20047;-67
2023/04/15 07:25:25;;;;;;;5.82;2.75;;;;;;;-144.57;100.00;62443.72;5072460;28;20048;-73
2023/04/15 07:27:52;;;;;;;7.13;2.40;;;;;;;-144.57;100.00;62443.72;5072259;28;20046;-70
2023/04/15 07:30:19;;;;;;;6.47;2.47;;;;;;;-144.57;100.00;62443.72;5054075;28;20044;-70
2023/04/15 07:32:46;;;;;;;3.65;1.92;;;;;;;-144.57;100.00;62443.72;5072095;28;20039;-69
2023/04/15 07:35:13;;;;;;;10.18;2.33;;;;;;;-144.57;100.00;62443.72;5071649;28;20058;-70
2023/04/15 07:37:42;;;;;;;5.90;2.28;;;;;;;-144.57;100.00;62443.72;5071803;28;20612;-71
2023/04/15 07:40:09;;;;;;;4.35;1.83;;;;;;;-144.57;100.00;62443.72;5071943;28;20051;-70
2023/04/15 07:42:37;;;;;;;6.32;3.42;;;;;;;-144.57;100.00;62443.72;5070615;28;20032;-70
2023/04/15 07:45:05;;;;;;;7.95;2.83;;;;;;;-144.57;100.00;62443.72;5053655;28;20425;-72
2023/04/15 07:47:32;;;;;;;2.00;1.80;;;;;;;-144.57;100.00;62443.72;5071750;28;20044;-72
2023/04/15 07:50:00;;;;;;;4.07;1.90;;;;;;;-144.57;100.00;62443.72;5071661;28;20055;-71
2023/04/15 07:52:28;;;;;;;5.15;2.58;;;;;;;-144.57;100.00;62443.72;5071814;28;20040;-70
2023/04/15 07:54:54;;;;;;;2.70;1.83;;;;;;;-144.57;100.00;62443.72;5070414;28;20055;-69
2023/04/15 07:57:21;;;;;;;5.85;2.25;;;;;;;-144.57;100.00;62443.72;5069930;28;20034;-70
2023/04/15 07:59:49;;;;;;;7.28;2.38;;;;;;;-144.57;100.00;62443.72;5060718;28;20036;-72
2023/04/15 08:02:17;;;;;;;6.07;2.42;;;;;;;-144.57;100.00;62443.72;5026483;28;20040;-73
2023/04/15 08:04:44;;;;;;;7.00;1.98;;;;;;;-144.57;100.00;62443.72;5054068;28;20061;-72
2023/04/15 08:07:10;;;;;;;4.10;2.30;;;;;;;-144.57;100.00;62443.72;5055893;28;20037;-72
2023/04/15 08:09:38;;;;;;;3.20;2.40;;;;;;;-144.57;100.00;62443.72;5074833;28;20049;-71
2023/04/15 08:12:06;;;;;;;6.28;2.63;;;;;;;-144.57;100.00;62443.72;5055297;28;20059;-72
2023/04/15 08:14:34;;;;;;;5.95;2.13;;;;;;;-144.57;100.00;62443.72;5055310;28;20037;-71
2023/04/15 08:17:01;;;;;;;5.43;2.25;;;;;;;-144.57;100.00;62443.72;5052460;28;20661;-71
2023/04/15 08:19:37;;;;;;;3.85;2.20;;;;;;;-144.57;100.00;62443.72;5055561;28;20446;-71
2023/04/15 08:22:13;;;;;;;4.22;2.50;;;;;;;-144.57;100.00;62443.72;5054296;28;20045;-71
2023/04/15 08:24:40;;;;;;;4.13;2.30;;;;;;;-144.57;100.00;62443.72;5056056;28;20045;-72
2023/04/15 08:27:07;;;;;;;5.60;1.95;;;;;;;-144.57;100.00;62443.72;5053715;28;20047;-70
2023/04/15 08:29:34;;;;;;;5.43;2.78;;;;;;;-144.57;100.00;62443.72;5055314;28;20041;-70
2023/04/15 08:32:01;;;;;;;4.93;2.15;;;;;;;-144.57;100.00;62443.72;5055649;28;20036;-70
2023/04/15 08:34:29;;;;;;;5.70;2.50;;;;;;;-144.57;100.00;62443.72;5060846;28;20513;-68
2023/04/15 08:36:55;;;;;;;5.05;2.40;;;;;;;-144.57;100.00;62443.72;5052056;28;20037;-70
2023/04/15 08:39:22;;;;;;;7.05;2.00;;;;;;;-144.57;100.00;62443.72;5060677;28;20032;-71
2023/04/15 08:42:00;;;;;;;7.80;2.30;;;;;;;-144.57;100.00;62443.72;5057623;28;20459;-71
2023/04/15 08:44:33;;;;;;;5.78;2.28;;;;;;;-144.57;100.00;62443.72;5057408;28;20054;-71
2023/04/15 08:47:01;;;;;;;3.35;1.88;;;;;;;-144.57;100.00;62443.72;5057058;28;20044;-70
2023/04/15 08:49:29;;;;;;;7.03;2.75;;;;;;;-144.57;100.00;62443.72;5057319;28;20045;-70
2023/04/15 08:51:58;;;;;;;6.90;2.00;;;;;;;-144.57;100.00;62443.72;5059691;28;20037;-71
2023/04/15 08:54:31;;;;;;;5.75;2.20;;;;;;;-144.57;100.00;62443.72;5075475;28;20036;-71
2023/04/15 08:56:58;;;;;;;6.03;2.00;;;;;;;-144.57;100.00;62443.72;5059529;28;21063;-70
2023/04/15 08:59:25;;;;;;;5.40;2.05;;;;;;;-144.57;100.00;62443.72;5058874;28;20494;-70
2023/04/15 09:01:54;;;;;;;3.88;2.22;;;;;;;-144.57;100.00;62443.72;5059455;28;20048;-70
2023/04/15 09:04:21;;;;;;;5.15;2.22;;;;;;;-144.57;100.00;62443.72;5077235;28;20063;-68
2023/04/15 09:06:48;;;;;;;3.45;1.83;;;;;;;-144.57;100.00;62443.72;5059820;28;20033;-68
2023/04/15 09:09:15;;;;;;;4.80;2.45;;;;;;;-144.57;100.00;62443.72;5055603;28;20041;-69
2023/04/15 09:11:42;;;;;;;8.60;3.10;;;;;;;-144.57;100.00;62443.72;5056367;28;20040;-70
2023/04/15 09:14:09;;;;;;;7.50;3.30;;;;;;;-144.57;100.00;62443.72;5059981;28;20032;-69
2023/04/15 09:16:56;;;;;;;6.57;2.70;;;;;;;-144.57;100.00;62443.72;5066505;28;20052;-69
2023/04/15 09:19:23;;;;;;;5.22;2.47;;;;;;;-144.57;100.00;62443.72;5070165;28;20413;-70
2023/04/15 09:21:56;;;;;;;7.22;3.33;;;;;;;-144.57;100.00;62443.72;5071477;28;20059;-71
2023/04/15 09:24:24;;;;;;;7.63;2.72;;;;;;;-144.57;100.00;62443.72;5071808;28;20405;-70
2023/04/15 09:26:53;;;;;;;3.83;1.77;;;;;;;-144.57;100.00;62443.72;5074015;28;20048;-70
2023/04/15 09:29:23;;;;;;;7.78;3.03;;;;;;;-144.57;100.00;62443.72;5073104;28;20401;-70
2023/04/15 09:31:51;;;;;;;10.27;2.65;;;;;;;-144.57;100.00;62443.72;5072890;28;20040;-70
2023/04/15 09:34:18;;;;;;;6.55;2.55;;;;;;;-144.57;100.00;62443.72;5064859;28;20028;-72
2023/04/15 09:36:51;;;;;;;4.60;2.55;;;;;;;-144.57;100.00;62443.72;5063207;28;20036;-70
2023/04/15 09:39:19;;;;;;;5.40;2.65;;;;;;;-144.57;100.00;62443.72;5062268;28;20037;-70
2023/04/15 09:41:46;;;;;;;7.20;2.78;;;;;;;-144.57;100.00;62443.72;5063337;28;20039;-70
2023/04/15 09:44:23;;;;;;;4.18;1.95;;;;;;;-144.57;100.00;62443.72;5062648;28;20405;-70
2023/04/15 09:46:50;;;;;;;8.73;2.42;;;;;;;-144.57;100.00;62443.72;5061760;28;20043;-70
2023/04/15 09:49:17;;;;;;;7.80;3.00;;;;;;;-144.57;100.00;62443.72;5065797;28;20036;-70
2023/04/15 09:51:44;;;;;;;4.93;2.25;;;;;;;-144.57;100.00;62443.72;5062549;28;20037;-71
2023/04/15 09:54:11;;;;;;;9.30;2.95;;;;;;;-144.57;100.00;62443.72;5069930;28;20039;-69
2023/04/15 09:56:41;;;;;;;5.78;2.22;;;;;;;-144.57;100.00;62443.72;5046027;28;20047;-73
2023/04/15 09:59:08;;;;;;;8.30;2.60;;;;;;;-144.57;100.00;62443.72;5048720;28;20406;-72
2023/04/15 10:01:35;;;;;;;6.28;2.67;;;;;;;-144.57;100.00;62443.72;5061840;28;20045;-72
2023/04/15 10:04:03;;;;;;;5.25;2.78;;;;;;;-144.57;100.00;62443.72;5062020;28;20061;-73
2023/04/15 10:06:31;;;;;;;4.20;2.35;;;;;;;-144.57;100.00;62443.72;5047478;28;20037;-71
2023/04/15 10:08:58;;;;;;;4.53;2.45;;;;;;;-144.57;100.00;62443.72;5067938;28;20036;-70
2023/04/15 10:11:28;;;;;;;5.60;2.35;;;;;;;-144.57;100.00;62443.72;5074176;28;20047;-70
2023/04/15 10:13:55;;;;;;;3.55;2.50;;;;;;;-144.57;100.00;62443.72;5055771;28;20040;-72
2023/04/15 10:16:26;;;;;;;5.25;2.70;;;;;;;-144.57;100.00;62443.72;5070658;28;20048;-71
2023/04/15 10:18:55;;;;;;;4.82;2.50;;;;;;;-144.57;100.00;62443.72;5047652;28;20029;-70
2023/04/15 10:21:22;;;;;;;6.28;3.00;;;;;;;-144.57;100.00;62443.72;5057919;28;20043;-70
2023/04/15 10:23:50;;;;;;;6.70;2.75;;;;;;;-144.57;100.00;62443.72;5034333;28;20396;-69
2023/04/15 10:26:17;;;;;;;5.43;3.00;;;;;;;-144.57;100.00;62443.72;5037093;28;20049;-77
2023/04/15 10:28:46;;;;;;;5.13;2.20;;;;;;;-144.57;100.00;62443.72;5062356;28;20050;-78
2023/04/15 10:31:16;;;;;;;4.93;2.90;;;;;;;-144.57;100.00;62443.72;5062416;28;20067;-78
2023/04/15 10:33:43;;;;;;;4.60;2.67;;;;;;;-144.57;100.00;62443.72;5046868;28;20033;-71
2023/04/15 10:36:11;;;;;;;6.95;2.72;;;;;;;-144.57;100.00;62443.72;5061058;28;20053;-71
2023/04/15 10:38:41;;;;;;;7.53;3.08;;;;;;;-144.57;100.00;62443.72;5048649;28;20032;-72
2023/04/15 10:41:14;;;;;;;6.00;3.17;;;;;;;-144.57;100.00;62443.72;5060651;28;20513;-72
2023/04/15 10:43:46;;;;;;;7.45;2.33;;;;;;;-144.57;100.00;62443.72;5063547;28;20040;-72
2023/04/15 10:46:18;;;;;;;4.43;2.83;;;;;;;-144.57;100.00;62443.72;5062188;28;20089;-77
2023/04/15 10:48:51;;;;;;;15.10;3.35;;;;;;;-144.57;100.00;62443.72;5061639;28;20029;-76
2023/04/15 10:51:27;;;;;;;5.22;2.67;;;;;;;-144.57;100.00;62443.72;5064125;28;20046;-69
2023/04/15 10:53:56;;;;;;;5.35;2.50;;;;;;;-144.57;100.00;62443.72;5062694;28;20051;-69
2023/04/15 10:56:24;;;;;;;7.10;2.88;;;;;;;-144.57;100.00;62443.72;5059484;28;20043;-69
2023/04/15 10:58:51;;;;;;;4.30;2.72;;;;;;;-144.57;100.00;62443.72;5061276;28;20041;-70
2023/04/15 11:01:22;;;;;;;6.45;2.38;;;;;;;-144.57;100.00;62443.72;5062189;28;20051;-70
2023/04/15 11:03:50;;;;;;;8.07;3.00;;;;;;;-144.57;100.00;62443.72;5063022;28;20055;-71
2023/04/15 11:06:17;;;;;;;6.03;3.08;;;;;;;-144.57;100.00;62443.72;5063593;28;20048;-73
2023/04/15 11:09:01;;;;;;;7.22;3.20;;;;;;;-144.57;100.00;62443.72;5072435;28;20040;-80
2023/04/15 11:12:07;;;;;;;4.57;2.35;;;;;;;-144.57;100.00;62443.72;5070103;28;20524;-72